createdAt,value
2023-01-29T00:01:14.445Z,0.91
2023-01-29T00:03:43.722Z,0.90
2023-01-29T00:06:13.430Z,0.93
2023-01-29T00:08:42.734Z,0.95
2023-01-29T00:11:12.504Z,0.88
2023-01-29T00:13:43.247Z,0.89
2023-01-29T00:16:12.881Z,0.83
2023-01-29T00:18:43.370Z,0.80
2023-01-29T00:21:13.746Z,0.76
2023-01-29T00:23:44.370Z,0.79
2023-01-29T00:26:14.493Z,0.77
2023-01-29T00:28:45.633Z,0.75
2023-01-29T00:31:18.394Z,0.74
2023-01-29T00:33:48.647Z,0.73
2023-01-29T00:36:21.193Z,0.73
2023-01-29T00:38:59.154Z,0.73
2023-01-29T00:41:48.375Z,0.76
2023-01-29T00:44:36.250Z,0.75
2023-01-29T00:47:28.101Z,0.73
2023-01-29T00:49:57.048Z,0.72
2023-01-29T00:52:26.636Z,0.69
2023-01-29T00:54:58.331Z,0.64
2023-01-29T00:57:29.532Z,0.60
2023-01-29T01:00:00.527Z,0.60
2023-01-29T01:02:47.773Z,0.56
2023-01-29T01:05:19.615Z,0.52
2023-01-29T01:07:50.325Z,0.56
2023-01-29T01:10:22.834Z,0.59
2023-01-29T01:12:59.082Z,0.51
2023-01-29T01:15:32.567Z,0.52
2023-01-29T01:18:04.145Z,0.49
2023-01-29T01:20:37.608Z,0.54
2023-01-29T01:23:07.020Z,0.58
2023-01-29T01:25:36.699Z,0.59
2023-01-29T01:28:05.847Z,0.61
2023-01-29T01:30:37.258Z,0.56
2023-01-29T01:33:06.707Z,0.53
2023-01-29T01:35:35.817Z,0.52
2023-01-29T01:38:05.188Z,0.54
2023-01-29T01:40:34.562Z,0.56
2023-01-29T01:43:04.515Z,0.57
2023-01-29T01:45:38.890Z,0.58
2023-01-29T01:48:14.481Z,0.50
2023-01-29T01:50:50.599Z,0.47
2023-01-29T01:53:28.394Z,0.50
2023-01-29T01:56:05.139Z,0.44
2023-01-29T01:58:40.939Z,0.45
2023-01-29T02:01:13.262Z,0.49
2023-01-29T02:04:07.142Z,0.47
2023-01-29T02:06:55.493Z,0.47
2023-01-29T02:09:35.529Z,0.46
2023-01-29T02:12:07.855Z,0.45
2023-01-29T02:14:40.800Z,0.49
2023-01-29T02:17:16.598Z,0.42
2023-01-29T02:19:57.384Z,0.46
2023-01-29T02:23:03.673Z,0.44
2023-01-29T02:26:17.328Z,0.41
2023-01-29T02:28:56.680Z,0.40
2023-01-29T02:31:40.218Z,0.43
2023-01-29T02:34:20.761Z,0.42
2023-01-29T02:36:59.517Z,0.42
2023-01-29T02:39:37.558Z,0.43
2023-01-29T02:42:24.772Z,0.46
2023-01-29T02:45:02.284Z,0.44
2023-01-29T02:47:41.193Z,0.40
2023-01-29T02:50:21.137Z,0.40
2023-01-29T02:53:00.734Z,0.41
2023-01-29T02:55:38.507Z,0.33
2023-01-29T02:58:16.837Z,0.26
2023-01-29T03:00:51.047Z,0.29
2023-01-29T03:03:27.643Z,0.30
2023-01-29T03:06:07.455Z,0.31
2023-01-29T03:08:46.281Z,0.32
2023-01-29T03:11:19.863Z,0.34
2023-01-29T03:13:57.857Z,0.31
2023-01-29T03:16:37.258Z,0.34
2023-01-29T03:19:14.156Z,0.27
2023-01-29T03:21:55.905Z,0.30
2023-01-29T03:24:54.536Z,0.23
2023-01-29T03:27:49.842Z,0.22
2023-01-29T03:30:38.969Z,0.26
2023-01-29T03:33:16.238Z,0.27
2023-01-29T03:35:55.961Z,0.27
2023-01-29T03:38:29.644Z,0.25
2023-01-29T03:41:08.049Z,0.29
2023-01-29T03:43:46.977Z,0.25
2023-01-29T03:46:29.709Z,0.23
2023-01-29T03:49:13.341Z,0.21
2023-01-29T03:51:57.566Z,0.24
2023-01-29T03:54:38.978Z,0.22
2023-01-29T03:57:17.213Z,0.22
2023-01-29T04:00:00.270Z,0.17
2023-01-29T04:02:37.749Z,0.13
2023-01-29T04:05:18.678Z,0.15
2023-01-29T04:07:52.498Z,0.10
2023-01-29T04:10:28.191Z,0.11
2023-01-29T04:13:03.362Z,0.14
2023-01-29T04:15:38.424Z,0.16
2023-01-29T04:18:08.558Z,0.19
2023-01-29T04:20:40.578Z,0.17
2023-01-29T04:23:22.889Z,0.14
2023-01-29T04:26:12.184Z,0.16
2023-01-29T04:29:08.807Z,0.13
2023-01-29T04:31:48.596Z,0.08
2023-01-29T04:34:29.424Z,0.07
2023-01-29T04:37:13.918Z,0.07
2023-01-29T04:39:54.098Z,0.02
2023-01-29T04:42:33.711Z,0.01
2023-01-29T04:45:17.762Z,0.03
2023-01-29T04:47:58.664Z,0.04
2023-01-29T04:50:39.019Z,0.05
2023-01-29T04:53:19.402Z,0.00
2023-01-29T04:55:57.396Z,-0.06
2023-01-29T04:58:34.970Z,-0.08
2023-01-29T05:01:08.283Z,-0.06
2023-01-29T05:03:39.067Z,-0.01
2023-01-29T05:06:13.063Z,0.02
2023-01-29T05:08:44.190Z,-0.05
2023-01-29T05:11:15.024Z,-0.05
2023-01-29T05:13:45.561Z,-0.09
2023-01-29T05:16:22.905Z,-0.11
2023-01-29T05:18:53.772Z,-0.08
2023-01-29T05:21:24.689Z,-0.05
2023-01-29T05:27:08.797Z,-0.04
2023-01-29T05:29:38.302Z,-0.07
2023-01-29T05:32:07.851Z,-0.05
2023-01-29T05:34:37.531Z,-0.04
2023-01-29T05:37:06.792Z,-0.06
2023-01-29T05:39:36.938Z,-0.09
2023-01-29T05:42:08.372Z,-0.09
2023-01-29T05:44:38.275Z,-0.11
2023-01-29T05:47:09.667Z,-0.12
2023-01-29T05:49:41.228Z,-0.09
2023-01-29T05:52:11.107Z,-0.07
2023-01-29T05:54:40.628Z,-0.07
2023-01-29T05:57:12.007Z,-0.08
2023-01-29T05:59:41.486Z,-0.07
2023-01-29T06:02:12.505Z,-0.09
2023-01-29T06:04:42.446Z,-0.09
2023-01-29T06:07:11.957Z,-0.07
2023-01-29T06:09:41.202Z,-0.04
2023-01-29T06:12:12.557Z,-0.03
2023-01-29T06:14:42.673Z,-0.10
2023-01-29T06:17:12.869Z,-0.07
2023-01-29T06:19:43.416Z,-0.09
2023-01-29T06:22:12.359Z,-0.14
2023-01-29T06:24:43.258Z,-0.14
2023-01-29T06:27:14.128Z,-0.13
2023-01-29T06:29:44.025Z,-0.11
2023-01-29T06:32:13.976Z,-0.10
2023-01-29T06:34:44.474Z,-0.22
2023-01-29T06:37:15.507Z,-0.25
2023-01-29T06:39:45.420Z,-0.26
2023-01-29T06:42:16.260Z,-0.33
2023-01-29T06:44:47.038Z,-0.31
2023-01-29T06:47:16.485Z,-0.33
2023-01-29T06:49:46.937Z,-0.28
2023-01-29T06:52:16.919Z,-0.25
2023-01-29T06:54:45.875Z,-0.28
2023-01-29T06:57:16.209Z,-0.39
2023-01-29T06:59:45.814Z,-0.42
2023-01-29T07:02:16.148Z,-0.44
2023-01-29T07:04:46.046Z,-0.45
2023-01-29T07:07:15.859Z,-0.43
2023-01-29T07:09:46.033Z,-0.43
2023-01-29T07:12:16.979Z,-0.40
2023-01-29T07:14:47.775Z,-0.39
2023-01-29T07:17:18.193Z,-0.35
2023-01-29T07:19:47.620Z,-0.37
2023-01-29T07:22:17.011Z,-0.36
2023-01-29T07:24:47.046Z,-0.36
2023-01-29T07:27:17.882Z,-0.33
2023-01-29T07:29:47.186Z,-0.34
2023-01-29T07:32:16.179Z,-0.33
2023-01-29T07:34:46.532Z,-0.34
2023-01-29T07:37:15.481Z,-0.35
2023-01-29T07:39:47.129Z,-0.40
2023-01-29T07:42:18.056Z,-0.37
2023-01-29T07:44:50.644Z,-0.36
2023-01-29T07:47:19.638Z,-0.42
2023-01-29T07:49:48.997Z,-0.41
2023-01-29T07:52:21.288Z,-0.38
2023-01-29T07:54:51.025Z,-0.34
2023-01-29T07:57:21.437Z,-0.33
2023-01-29T07:59:50.850Z,-0.37
2023-01-29T08:02:20.270Z,-0.35
2023-01-29T08:04:50.645Z,-0.31
2023-01-29T08:07:20.543Z,-0.32
2023-01-29T08:09:50.943Z,-0.33
2023-01-29T08:12:22.342Z,-0.37
2023-01-29T08:14:53.003Z,-0.35
2023-01-29T08:17:23.069Z,-0.34
2023-01-29T08:19:51.472Z,-0.33
2023-01-29T08:22:19.939Z,-0.32
2023-01-29T08:24:54.490Z,-0.29
2023-01-29T08:27:30.534Z,-0.28
2023-01-29T08:30:00.526Z,-0.29
2023-01-29T08:32:29.999Z,-0.34
2023-01-29T08:34:59.586Z,-0.35
2023-01-29T08:37:29.707Z,-0.43
2023-01-29T08:39:59.694Z,-0.45
2023-01-29T08:42:31.607Z,-0.47
2023-01-29T08:45:01.580Z,-0.48
2023-01-29T08:47:32.632Z,-0.45
2023-01-29T08:50:02.117Z,-0.42
2023-01-29T08:52:32.485Z,-0.43
2023-01-29T08:55:02.333Z,-0.41
2023-01-29T08:57:33.517Z,-0.39
2023-01-29T09:00:04.334Z,-0.39
2023-01-29T09:02:34.589Z,-0.35
2023-01-29T09:05:03.575Z,-0.33
2023-01-29T09:07:34.133Z,-0.27
2023-01-29T09:10:03.095Z,-0.29
2023-01-29T09:12:34.521Z,-0.31
2023-01-29T09:15:03.988Z,-0.25
2023-01-29T09:17:33.946Z,-0.21
2023-01-29T09:20:02.949Z,-0.16
2023-01-29T09:22:33.528Z,-0.17
2023-01-29T09:25:03.626Z,-0.11
2023-01-29T09:27:33.964Z,-0.08
2023-01-29T09:30:02.689Z,-0.10
2023-01-29T09:33:02.017Z,-0.10
2023-01-29T09:35:22.093Z,-0.08
2023-01-29T09:37:51.582Z,-0.04
2023-01-29T09:40:28.830Z,-0.03
2023-01-29T09:43:05.691Z,-0.02
2023-01-29T09:45:35.836Z,-0.03
2023-01-29T09:48:07.369Z,-0.04
2023-01-29T09:50:41.072Z,0.02
2023-01-29T09:53:22.219Z,0.05
2023-01-29T09:56:01.021Z,0.05
2023-01-29T09:58:37.834Z,0.07
2023-01-29T10:01:19.608Z,0.06
2023-01-29T10:04:16.035Z,0.04
2023-01-29T10:07:07.654Z,0.10
2023-01-29T10:10:34.031Z,0.12
2023-01-29T10:13:16.741Z,0.13
2023-01-29T10:16:15.007Z,0.16
2023-01-29T10:19:40.627Z,0.22
2023-01-29T10:22:56.137Z,0.25
2023-01-29T10:25:26.711Z,0.27
2023-01-29T10:28:00.589Z,0.26
2023-01-29T10:30:37.163Z,0.32
2023-01-29T10:33:15.146Z,0.34
2023-01-29T10:35:53.381Z,0.26
2023-01-29T10:38:48.467Z,0.30
2023-01-29T10:41:37.506Z,0.28
2023-01-29T10:44:25.165Z,0.32
2023-01-29T10:47:24.255Z,0.33
2023-01-29T10:50:19.220Z,0.39
2023-01-29T10:53:18.942Z,0.33
2023-01-29T10:56:02.523Z,0.31
2023-01-29T10:58:44.608Z,0.34
2023-01-29T11:01:16.602Z,0.34
2023-01-29T11:03:46.839Z,0.39
2023-01-29T11:06:25.425Z,0.43
2023-01-29T11:09:04.561Z,0.49
2023-01-29T11:11:42.037Z,0.45
2023-01-29T11:14:20.728Z,0.48
2023-01-29T11:16:50.271Z,0.49
2023-01-29T11:19:20.791Z,0.48
2023-01-29T11:22:01.633Z,0.49
2023-01-29T11:24:30.759Z,0.52
2023-01-29T11:27:02.286Z,0.57
2023-01-29T11:29:42.171Z,0.53
2023-01-29T11:32:17.041Z,0.51
2023-01-29T11:35:05.679Z,0.52
2023-01-29T11:37:39.821Z,0.52
2023-01-29T11:40:42.432Z,0.57
2023-01-29T11:43:24.404Z,0.61
2023-01-29T11:45:57.307Z,0.62
2023-01-29T11:48:40.637Z,0.60
2023-01-29T11:51:14.593Z,0.63
2023-01-29T11:53:52.774Z,0.63
2023-01-29T11:56:30.601Z,0.64
2023-01-29T11:59:04.439Z,0.67
2023-01-29T12:01:39.105Z,0.72
2023-01-29T12:04:22.915Z,0.78
2023-01-29T12:06:56.583Z,0.77
2023-01-29T12:09:31.565Z,0.76
2023-01-29T12:12:27.762Z,0.77
2023-01-29T12:15:20.178Z,0.78
2023-01-29T12:18:30.627Z,0.77
2023-01-29T12:21:04.572Z,0.71
2023-01-29T12:23:45.676Z,0.72
2023-01-29T12:26:23.433Z,0.74
2023-01-29T12:29:14.625Z,0.80
2023-01-29T12:31:53.453Z,0.80
2023-01-29T12:34:34.904Z,0.81
2023-01-29T12:37:18.618Z,0.86
2023-01-29T12:39:49.691Z,0.89
2023-01-29T12:42:23.366Z,0.89
2023-01-29T12:44:59.529Z,0.96
2023-01-29T12:47:35.377Z,0.88
2023-01-29T12:50:16.431Z,0.85
2023-01-29T12:52:50.604Z,0.92
2023-01-29T12:55:24.772Z,0.96
2023-01-29T12:57:59.954Z,0.93
2023-01-29T13:00:35.053Z,0.96
2023-01-29T13:03:16.937Z,0.98
2023-01-29T13:05:51.283Z,1.01
2023-01-29T13:08:27.842Z,1.02
2023-01-29T13:11:02.682Z,1.00
2023-01-29T13:13:38.013Z,1.07
2023-01-29T13:16:13.905Z,1.07
2023-01-29T13:18:49.186Z,1.08
2023-01-29T13:21:22.213Z,1.07
2023-01-29T13:23:57.375Z,1.08
2023-01-29T13:26:28.822Z,1.09
2023-01-29T13:29:00.616Z,1.09
2023-01-29T13:31:34.174Z,1.07
2023-01-29T13:34:18.344Z,1.12
2023-01-29T13:36:52.050Z,1.12
2023-01-29T13:39:28.382Z,1.16
2023-01-29T13:42:00.589Z,1.20
2023-01-29T13:44:37.216Z,1.22
2023-01-29T13:47:11.579Z,1.19
2023-01-29T13:49:46.364Z,1.19
2023-01-29T13:52:33.512Z,1.19
2023-01-29T13:55:09.639Z,1.23
2023-01-29T13:57:57.226Z,1.26
2023-01-29T14:01:02.242Z,1.25
2023-01-29T14:04:04.823Z,1.29
2023-01-29T14:06:44.721Z,1.28
2023-01-29T14:10:05.213Z,1.29
2023-01-29T14:12:50.399Z,1.32
2023-01-29T14:15:36.027Z,1.33
2023-01-29T14:18:29.204Z,1.37
2023-01-29T14:21:08.130Z,1.40
2023-01-29T14:23:45.251Z,1.41
2023-01-29T14:26:46.531Z,1.42
2023-01-29T14:29:34.329Z,1.38
2023-01-29T14:32:19.418Z,1.37
2023-01-29T14:34:52.421Z,1.42
2023-01-29T14:37:30.817Z,1.42
2023-01-29T14:40:10.406Z,1.44
2023-01-29T14:42:48.576Z,1.41
2023-01-29T14:45:29.984Z,1.40
2023-01-29T14:48:49.235Z,1.42
2023-01-29T14:51:22.364Z,1.44
2023-01-29T14:54:03.816Z,1.46
2023-01-29T14:56:38.387Z,1.44
2023-01-29T14:59:20.663Z,1.44
2023-01-29T15:01:55.949Z,1.43
2023-01-29T15:04:30.876Z,1.42
2023-01-29T15:07:07.650Z,1.44
2023-01-29T15:09:47.450Z,1.46
2023-01-29T15:12:28.340Z,1.47
2023-01-29T15:15:12.562Z,1.45
2023-01-29T15:17:53.534Z,1.41
2023-01-29T15:20:33.699Z,1.41
2023-01-29T15:23:06.677Z,1.40
2023-01-29T15:25:48.633Z,1.40
2023-01-29T15:28:18.958Z,1.42
2023-01-29T15:30:55.292Z,1.39
2023-01-29T15:33:24.379Z,1.36
2023-01-29T15:36:07.507Z,1.35
2023-01-29T15:38:38.308Z,1.31
2023-01-29T15:41:22.028Z,1.27
2023-01-29T15:43:59.481Z,1.27
2023-01-29T15:46:34.417Z,1.27
2023-01-29T15:49:09.886Z,1.23
2023-01-29T15:51:40.408Z,1.17
2023-01-29T15:54:17.629Z,1.15
2023-01-29T15:56:53.258Z,1.13
2023-01-29T15:59:28.639Z,1.12
2023-01-29T16:01:58.728Z,1.10
2023-01-29T16:04:31.498Z,1.09
2023-01-29T16:07:04.327Z,1.06
2023-01-29T16:09:36.104Z,1.02
2023-01-29T16:12:06.369Z,0.99
2023-01-29T16:14:35.923Z,0.97
2023-01-29T16:17:25.162Z,0.93
2023-01-29T16:20:02.092Z,0.93
2023-01-29T16:22:35.360Z,0.94
2023-01-29T16:25:09.041Z,0.85
2023-01-29T16:27:38.749Z,0.83
2023-01-29T16:30:08.863Z,0.80
2023-01-29T16:32:38.234Z,0.77
2023-01-29T16:35:14.962Z,0.75
2023-01-29T16:37:49.607Z,0.70
2023-01-29T16:40:33.115Z,0.68
2023-01-29T16:43:50.832Z,0.63
2023-01-29T16:46:28.347Z,0.65
2023-01-29T16:48:59.012Z,0.64
2023-01-29T16:51:32.140Z,0.59
2023-01-29T16:54:07.932Z,0.49
2023-01-29T16:56:42.018Z,0.46
2023-01-29T16:59:26.807Z,0.46
2023-01-29T17:01:57.823Z,0.44
2023-01-29T17:04:27.307Z,0.41
2023-01-29T17:07:01.085Z,0.40
2023-01-29T17:09:34.964Z,0.39
2023-01-29T17:12:09.332Z,0.36
2023-01-29T17:14:42.753Z,0.37
2023-01-29T17:17:20.192Z,0.30
2023-01-29T17:19:49.292Z,0.27
2023-01-29T17:22:18.775Z,0.27
2023-01-29T17:24:51.421Z,0.27
2023-01-29T17:27:23.801Z,0.21
2023-01-29T17:29:54.162Z,0.21
2023-01-29T17:32:24.133Z,0.17
2023-01-29T17:34:53.694Z,0.15
2023-01-29T17:37:22.186Z,0.13
2023-01-29T17:39:53.241Z,0.14
2023-01-29T17:42:25.860Z,0.10
2023-01-29T17:44:55.826Z,0.11
2023-01-29T17:47:25.290Z,0.10
2023-01-29T17:49:54.382Z,0.05
2023-01-29T17:52:24.102Z,0.03
2023-01-29T17:54:54.122Z,0.03
2023-01-29T17:57:25.640Z,-0.01
2023-01-29T17:59:55.961Z,-0.04
2023-01-29T18:02:29.607Z,-0.08
2023-01-29T18:04:59.555Z,-0.10
2023-01-29T18:07:29.048Z,-0.10
2023-01-29T18:09:59.101Z,-0.13
2023-01-29T18:12:29.927Z,-0.16
2023-01-29T18:14:59.342Z,-0.17
2023-01-29T18:17:27.835Z,-0.21
2023-01-29T18:19:59.646Z,-0.22
2023-01-29T18:22:29.209Z,-0.23
2023-01-29T18:24:59.252Z,-0.31
2023-01-29T18:27:29.402Z,-0.35
2023-01-29T18:29:59.113Z,-0.35
2023-01-29T18:32:28.481Z,-0.38
2023-01-29T18:34:57.467Z,-0.41
2023-01-29T18:37:26.604Z,-0.39
2023-01-29T18:39:56.107Z,-0.52
2023-01-29T18:42:26.194Z,-0.54
2023-01-29T18:44:56.977Z,-0.57
2023-01-29T18:47:25.947Z,-0.62
2023-01-29T18:49:55.300Z,-0.60
2023-01-29T18:52:23.992Z,-0.59
2023-01-29T18:54:53.514Z,-0.60
2023-01-29T18:58:26.515Z,-0.59
2023-01-29T19:00:15.410Z,-0.71
2023-01-29T19:02:46.777Z,-0.73
2023-01-29T19:05:17.124Z,-0.72
2023-01-29T19:07:46.479Z,-0.76
2023-01-29T19:10:17.824Z,-0.76
2023-01-29T19:12:47.209Z,-0.78
2023-01-29T19:15:20.697Z,-0.75
2023-01-29T19:17:51.456Z,-0.78
2023-01-29T19:20:20.367Z,-0.81
2023-01-29T19:22:49.925Z,-0.79
2023-01-29T19:25:20.266Z,-0.78
2023-01-29T19:27:50.228Z,-0.75
2023-01-29T19:30:20.879Z,-0.77
2023-01-29T19:32:50.890Z,-0.79
2023-01-29T19:35:20.868Z,-0.81
2023-01-29T19:37:49.741Z,-0.82
2023-01-29T19:40:20.457Z,-0.84
2023-01-29T19:42:49.515Z,-0.91
2023-01-29T19:45:49.128Z,-0.89
2023-01-29T19:48:15.055Z,-0.90
2023-01-29T19:50:44.199Z,-0.91
2023-01-29T19:53:14.154Z,-0.88
2023-01-29T19:55:42.802Z,-0.83
2023-01-29T19:58:11.661Z,-0.78
2023-01-29T20:00:43.038Z,-0.73
2023-01-29T20:03:11.884Z,-0.66
2023-01-29T20:05:41.390Z,-0.62
2023-01-29T20:08:10.704Z,-0.54
2023-01-29T20:10:40.643Z,-0.49
2023-01-29T20:13:09.581Z,-0.44
2023-01-29T20:15:38.509Z,-0.38
2023-01-29T20:18:11.873Z,-0.34
2023-01-29T20:20:44.309Z,-0.31
2023-01-29T20:23:14.749Z,-0.26
2023-01-29T20:25:45.164Z,-0.22
2023-01-29T20:28:16.589Z,-0.17
2023-01-29T20:30:47.094Z,-0.15
2023-01-29T20:33:18.481Z,-0.11
2023-01-29T20:35:47.516Z,-0.08
2023-01-29T20:38:16.459Z,-0.07
2023-01-29T20:40:46.118Z,-0.04
2023-01-29T20:43:15.100Z,-0.03
2023-01-29T20:45:45.285Z,0.00
2023-01-29T20:48:17.494Z,0.02
2023-01-29T20:50:47.186Z,0.06
2023-01-29T20:53:17.173Z,0.08
2023-01-29T20:55:47.018Z,0.12
2023-01-29T20:58:18.197Z,0.14
2023-01-29T21:00:48.326Z,0.16
2023-01-29T21:03:19.759Z,0.17
2023-01-29T21:05:49.314Z,0.16
2023-01-29T21:08:18.227Z,0.20
2023-01-29T21:10:47.177Z,0.22
2023-01-29T21:13:17.813Z,0.24
2023-01-29T21:15:48.095Z,0.28
2023-01-29T21:18:18.557Z,0.28
2023-01-29T21:20:47.938Z,0.29
2023-01-29T21:23:17.874Z,0.30
2023-01-29T21:25:48.897Z,0.30
2023-01-29T21:28:17.530Z,0.30
2023-01-29T21:30:48.435Z,0.31
2023-01-29T21:33:19.533Z,0.31
2023-01-29T21:35:57.766Z,0.33
2023-01-29T21:38:27.469Z,0.30
2023-01-29T21:41:02.480Z,0.31
2023-01-29T21:43:31.034Z,0.32
2023-01-29T21:46:03.882Z,0.32
2023-01-29T21:48:35.834Z,0.29
2023-01-29T21:51:05.403Z,0.31
2023-01-29T21:53:34.546Z,0.31
2023-01-29T21:56:05.073Z,0.35
2023-01-29T21:58:35.142Z,0.37
2023-01-29T22:01:28.036Z,0.37
2023-01-29T22:03:55.208Z,0.41
2023-01-29T22:06:25.476Z,0.41
2023-01-29T22:08:55.066Z,0.39
2023-01-29T22:11:24.218Z,0.38
2023-01-29T22:13:53.600Z,0.40
2023-01-29T22:16:23.545Z,0.40
2023-01-29T22:18:54.898Z,0.43
2023-01-29T22:21:25.907Z,0.45
2023-01-29T22:23:55.380Z,0.42
2023-01-29T22:26:24.945Z,0.43
2023-01-29T22:28:54.876Z,0.49
2023-01-29T22:31:24.071Z,0.52
2023-01-29T22:33:56.554Z,0.54
2023-01-29T22:36:26.536Z,0.49
2023-01-29T22:38:55.900Z,0.55
2023-01-29T22:41:25.259Z,0.50
2023-01-29T22:43:54.552Z,0.52
2023-01-29T22:46:24.147Z,0.52
2023-01-29T22:48:56.275Z,0.53
2023-01-29T22:51:27.007Z,0.49
2023-01-29T22:53:58.489Z,0.49
2023-01-29T22:56:31.703Z,0.50
2023-01-29T22:59:02.413Z,0.50
2023-01-29T23:01:33.447Z,0.54
2023-01-29T23:04:04.454Z,0.48
2023-01-29T23:06:33.370Z,0.47
2023-01-29T23:09:03.781Z,0.46
2023-01-29T23:11:33.730Z,0.47
2023-01-29T23:14:03.633Z,0.49
2023-01-29T23:16:32.006Z,0.50
2023-01-29T23:19:03.424Z,0.53
2023-01-29T23:21:32.843Z,0.50
2023-01-29T23:24:02.816Z,0.47
2023-01-29T23:26:49.563Z,0.44
2023-01-29T23:29:20.101Z,0.53
2023-01-29T23:31:49.704Z,0.56
2023-01-29T23:34:20.663Z,0.60
2023-01-29T23:36:51.260Z,0.59
2023-01-29T23:39:21.256Z,0.54
2023-01-29T23:41:50.763Z,0.53
2023-01-29T23:44:21.197Z,0.54
2023-01-29T23:46:51.806Z,0.49
2023-01-29T23:49:22.673Z,0.50
2023-01-29T23:51:52.516Z,0.54
2023-01-29T23:54:22.061Z,0.52
2023-01-29T23:56:51.416Z,0.50
2023-01-29T23:59:20.235Z,0.48
